createdAt,value
2023-06-25T00:00:34.067Z,66.82
2023-06-25T00:03:01.718Z,67.22
2023-06-25T00:05:29.649Z,67.02
2023-06-25T00:07:57.211Z,66.95
2023-06-25T00:10:24.569Z,66.99
2023-06-25T00:12:52.085Z,67.35
2023-06-25T00:15:19.488Z,66.81
2023-06-25T00:17:49.122Z,67.51
2023-06-25T00:20:17.332Z,67.71
2023-06-25T00:22:57.553Z,66.98
2023-06-25T00:25:32.565Z,66.79
2023-06-25T00:28:01.982Z,66.88
2023-06-25T00:30:30.251Z,66.81
2023-06-25T00:32:58.142Z,66.77
2023-06-25T00:35:29.693Z,67.48
2023-06-25T00:38:02.709Z,67.18
2023-06-25T00:40:30.340Z,66.59
2023-06-25T00:43:01.484Z,66.38
2023-06-25T00:45:28.991Z,66.70
2023-06-25T00:47:56.954Z,66.06
2023-06-25T00:50:26.380Z,65.68
2023-06-25T00:52:54.098Z,66.55
2023-06-25T00:55:21.953Z,66.09
2023-06-25T00:57:49.773Z,65.60
2023-06-25T01:00:21.201Z,66.88
2023-06-25T01:02:51.878Z,65.82
2023-06-25T01:05:22.590Z,66.74
2023-06-25T01:07:52.525Z,67.73
2023-06-25T01:10:20.624Z,67.89
2023-06-25T01:12:48.086Z,67.60
2023-06-25T01:15:15.560Z,68.24
2023-06-25T01:17:43.201Z,68.78
2023-06-25T01:20:14.687Z,68.98
2023-06-25T01:22:42.388Z,68.61
2023-06-25T01:25:10.656Z,69.51
2023-06-25T01:27:38.941Z,69.76
2023-06-25T01:30:11.210Z,70.22
2023-06-25T01:32:43.103Z,70.01
2023-06-25T01:35:11.384Z,69.66
2023-06-25T01:37:39.169Z,70.88
2023-06-25T01:40:10.522Z,69.57
2023-06-25T01:42:38.038Z,69.67
2023-06-25T01:45:05.850Z,69.29
2023-06-25T01:47:33.799Z,69.05
2023-06-25T01:50:01.206Z,68.74
2023-06-25T01:52:29.042Z,69.36
2023-06-25T01:54:56.493Z,69.47
2023-06-25T01:57:23.951Z,70.46
2023-06-25T01:59:51.373Z,70.29
2023-06-25T02:02:19.057Z,71.06
2023-06-25T02:04:46.627Z,71.56
2023-06-25T02:07:14.487Z,72.05
2023-06-25T02:09:42.887Z,68.81
2023-06-25T02:12:10.405Z,71.23
2023-06-25T02:14:38.384Z,72.25
2023-06-25T02:17:06.035Z,71.79
2023-06-25T02:19:33.443Z,73.84
2023-06-25T02:22:01.103Z,73.25
2023-06-25T02:24:28.565Z,72.58
2023-06-25T02:26:56.139Z,74.06
2023-06-25T02:29:23.533Z,74.64
2023-06-25T02:31:51.098Z,75.88
2023-06-25T02:34:18.558Z,74.46
2023-06-25T02:36:46.227Z,75.11
2023-06-25T02:39:13.730Z,77.26
2023-06-25T02:41:41.119Z,73.06
2023-06-25T02:44:08.654Z,73.93
2023-06-25T02:46:36.780Z,73.82
2023-06-25T02:49:05.035Z,75.01
2023-06-25T02:51:32.508Z,75.66
2023-06-25T02:54:00.013Z,73.64
2023-06-25T02:56:28.234Z,71.07
2023-06-25T02:58:55.617Z,72.70
2023-06-25T03:01:23.216Z,71.45
2023-06-25T03:03:50.632Z,70.97
2023-06-25T03:06:18.226Z,72.68
2023-06-25T03:08:45.642Z,72.01
2023-06-25T03:11:13.261Z,72.28
2023-06-25T03:13:40.756Z,74.18
2023-06-25T03:16:08.372Z,71.71
2023-06-25T03:18:35.891Z,70.46
2023-06-25T03:21:03.282Z,69.79
2023-06-25T03:23:30.984Z,70.34
2023-06-25T03:26:00.781Z,71.55
2023-06-25T03:28:29.625Z,72.40
2023-06-25T03:30:56.944Z,72.48
2023-06-25T03:33:24.648Z,72.09
2023-06-25T03:35:52.195Z,70.63
2023-06-25T03:38:19.712Z,70.63
2023-06-25T03:40:47.377Z,70.17
2023-06-25T03:43:14.835Z,70.82
2023-06-25T03:45:42.848Z,71.74
2023-06-25T03:48:10.414Z,71.44
2023-06-25T03:50:37.987Z,70.64
2023-06-25T03:53:05.674Z,71.16
2023-06-25T03:55:36.049Z,71.48
2023-06-25T03:58:03.822Z,71.88
2023-06-25T04:00:31.182Z,70.86
2023-06-25T04:02:58.663Z,72.20
2023-06-25T04:05:26.009Z,71.80
2023-06-25T04:07:54.502Z,71.76
2023-06-25T04:10:22.073Z,72.93
2023-06-25T04:12:49.525Z,69.85
2023-06-25T04:15:18.231Z,70.33
2023-06-25T04:17:48.075Z,71.06
2023-06-25T04:20:15.758Z,70.36
2023-06-25T04:22:43.263Z,72.00
2023-06-25T04:25:12.666Z,71.66
2023-06-25T04:27:40.524Z,72.09
2023-06-25T04:30:08.468Z,73.54
2023-06-25T04:32:36.669Z,74.16
2023-06-25T04:35:04.789Z,75.26
2023-06-25T04:37:32.555Z,74.64
2023-06-25T04:40:01.716Z,74.33
2023-06-25T04:42:29.090Z,72.04
2023-06-25T04:44:56.628Z,75.10
2023-06-25T04:47:24.106Z,72.87
2023-06-25T04:49:51.704Z,72.04
2023-06-25T04:52:20.303Z,73.30
2023-06-25T04:54:47.905Z,70.60
2023-06-25T04:57:15.585Z,69.74
2023-06-25T04:59:42.917Z,70.56
2023-06-25T05:02:10.374Z,70.48
2023-06-25T05:04:37.890Z,70.53
2023-06-25T05:07:05.424Z,70.66
2023-06-25T05:09:33.041Z,71.29
2023-06-25T05:12:00.553Z,70.28
2023-06-25T05:14:28.489Z,68.69
2023-06-25T05:16:55.852Z,70.03
2023-06-25T05:19:23.203Z,72.58
2023-06-25T05:21:50.612Z,73.23
2023-06-25T05:24:18.091Z,74.18
2023-06-25T05:26:45.581Z,71.66
2023-06-25T05:29:13.036Z,72.77
2023-06-25T05:31:41.039Z,71.52
2023-06-25T05:34:08.569Z,74.27
2023-06-25T05:36:35.905Z,73.48
2023-06-25T05:39:03.486Z,75.52
2023-06-25T05:41:30.939Z,75.45
2023-06-25T05:43:59.221Z,75.94
2023-06-25T05:46:27.464Z,77.32
2023-06-25T05:48:55.889Z,76.72
2023-06-25T05:51:23.770Z,71.79
2023-06-25T05:53:58.701Z,70.05
2023-06-25T05:56:27.151Z,69.83
2023-06-25T05:58:55.354Z,73.22
2023-06-25T06:01:24.170Z,71.00
2023-06-25T06:03:53.398Z,63.82
2023-06-25T06:06:21.785Z,67.56
2023-06-25T06:08:49.993Z,67.25
2023-06-25T06:11:23.892Z,61.66
2023-06-25T06:13:55.593Z,57.40
2023-06-25T06:16:26.944Z,65.13
2023-06-25T06:18:55.353Z,61.55
2023-06-25T06:21:30.677Z,63.30
2023-06-25T06:24:13.126Z,59.21
2023-06-25T06:27:18.712Z,60.33
2023-06-25T06:29:51.677Z,56.32
2023-06-25T06:32:23.922Z,54.21
2023-06-25T06:38:04.000Z,53.45
2023-06-25T06:40:36.421Z,55.21
2023-06-25T06:43:15.903Z,56.21
2023-06-25T06:45:46.796Z,53.28
2023-06-25T06:48:15.465Z,52.98
2023-06-25T06:50:43.225Z,53.50
2023-06-25T06:53:10.717Z,53.29
2023-06-25T06:55:43.540Z,54.67
2023-06-25T06:58:11.560Z,52.28
2023-06-25T07:00:46.658Z,51.91
2023-06-25T07:03:15.406Z,51.70
2023-06-25T07:05:43.365Z,52.19
2023-06-25T07:08:11.398Z,51.23
2023-06-25T07:10:39.432Z,49.73
2023-06-25T07:13:09.857Z,49.71
2023-06-25T07:15:38.797Z,51.39
2023-06-25T07:18:07.676Z,48.67
2023-06-25T07:20:35.389Z,48.99
2023-06-25T07:23:02.916Z,48.12
2023-06-25T07:25:30.361Z,46.78
2023-06-25T07:27:57.782Z,46.92
2023-06-25T07:30:25.128Z,46.10
2023-06-25T07:32:52.733Z,45.58
2023-06-25T07:35:20.130Z,46.15
2023-06-25T07:37:47.556Z,46.18
2023-06-25T07:40:14.912Z,44.21
2023-06-25T07:42:42.297Z,43.74
2023-06-25T07:45:10.327Z,43.43
2023-06-25T07:47:37.724Z,44.19
2023-06-25T07:50:05.830Z,43.85
2023-06-25T07:52:33.569Z,44.56
2023-06-25T07:55:01.127Z,44.14
2023-06-25T07:57:28.561Z,43.75
2023-06-25T07:59:56.116Z,44.15
2023-06-25T08:02:23.715Z,44.15
2023-06-25T08:04:51.428Z,44.24
2023-06-25T08:07:19.170Z,42.30
2023-06-25T08:09:47.579Z,41.84
2023-06-25T08:12:17.574Z,41.43
2023-06-25T08:14:46.646Z,38.63
2023-06-25T08:17:14.046Z,39.61
2023-06-25T08:19:41.470Z,38.21
2023-06-25T08:22:08.841Z,37.99
2023-06-25T08:24:36.148Z,37.06
2023-06-25T08:27:03.699Z,37.36
2023-06-25T08:29:32.192Z,35.93
2023-06-25T08:31:59.647Z,36.37
2023-06-25T08:34:27.940Z,36.20
2023-06-25T08:36:56.548Z,35.60
2023-06-25T08:39:23.865Z,36.09
2023-06-25T08:49:15.584Z,37.72
2023-06-25T09:01:27.400Z,37.82
2023-06-25T09:07:05.256Z,37.43
2023-06-25T09:09:32.929Z,37.78
2023-06-25T09:12:00.435Z,37.78
2023-06-25T09:14:27.910Z,38.93
2023-06-25T09:16:56.207Z,37.87
2023-06-25T09:19:23.762Z,36.58
2023-06-25T09:21:51.527Z,36.39
2023-06-25T09:24:22.687Z,36.40
2023-06-25T09:26:51.540Z,36.57
2023-06-25T09:29:19.834Z,35.55
2023-06-25T09:31:48.025Z,35.60
2023-06-25T09:34:16.461Z,34.21
2023-06-25T09:36:44.852Z,35.79
2023-06-25T09:39:13.558Z,36.27
2023-06-25T09:41:44.673Z,35.65
2023-06-25T09:44:14.244Z,36.42
2023-06-25T09:46:42.644Z,35.14
2023-06-25T09:49:10.331Z,35.85
2023-06-25T09:51:53.078Z,34.98
2023-06-25T09:54:22.610Z,35.23
2023-06-25T09:56:50.944Z,35.65
2023-06-25T09:59:18.891Z,35.64
2023-06-25T10:01:46.391Z,38.20
2023-06-25T10:04:13.902Z,36.69
2023-06-25T10:06:41.515Z,37.33
2023-06-25T10:09:09.074Z,36.82
2023-06-25T10:11:36.990Z,35.60
2023-06-25T10:14:05.265Z,36.08
2023-06-25T10:16:38.960Z,36.27
2023-06-25T10:19:07.643Z,36.12
2023-06-25T10:21:35.148Z,35.53
2023-06-25T10:24:04.085Z,35.16
2023-06-25T10:26:32.178Z,35.03
2023-06-25T10:29:06.289Z,34.40
2023-06-25T10:31:40.932Z,33.90
2023-06-25T10:34:10.196Z,34.97
2023-06-25T10:36:48.745Z,34.19
2023-06-25T10:39:16.232Z,35.40
2023-06-25T10:41:47.124Z,34.11
2023-06-25T10:44:16.659Z,36.15
2023-06-25T10:46:44.341Z,35.55
2023-06-25T10:49:19.161Z,35.32
2023-06-25T10:51:46.574Z,35.48
2023-06-25T10:54:15.287Z,36.60
2023-06-25T10:56:43.027Z,35.61
2023-06-25T10:59:10.382Z,36.05
2023-06-25T11:01:37.916Z,35.41
2023-06-25T11:04:14.152Z,35.41
2023-06-25T11:06:41.627Z,34.93
2023-06-25T11:09:09.165Z,35.04
2023-06-25T11:11:38.143Z,35.30
2023-06-25T11:14:05.812Z,37.28
2023-06-25T11:16:33.245Z,35.72
2023-06-25T11:19:00.626Z,36.05
2023-06-25T11:21:28.276Z,35.78
2023-06-25T11:23:55.910Z,35.79
2023-06-25T11:26:23.303Z,35.01
2023-06-25T11:28:51.159Z,34.87
2023-06-25T11:31:18.564Z,34.49
2023-06-25T11:33:54.408Z,35.20
2023-06-25T11:36:24.024Z,34.65
2023-06-25T11:38:51.534Z,35.52
2023-06-25T11:41:26.279Z,35.31
2023-06-25T11:43:53.540Z,35.97
2023-06-25T11:46:22.267Z,34.83
2023-06-25T11:48:49.938Z,34.89
2023-06-25T11:51:17.515Z,34.73
2023-06-25T11:53:44.845Z,35.33
2023-06-25T11:56:12.393Z,35.54
2023-06-25T11:58:39.891Z,35.17
2023-06-25T12:01:08.811Z,35.09
2023-06-25T12:03:39.386Z,35.04
2023-06-25T12:06:08.349Z,33.93
2023-06-25T12:08:36.466Z,35.11
2023-06-25T12:11:03.830Z,34.64
2023-06-25T12:13:31.532Z,34.90
2023-06-25T12:15:59.189Z,34.30
2023-06-25T12:18:26.596Z,35.30
2023-06-25T12:20:53.921Z,35.31
2023-06-25T12:23:21.427Z,34.94
2023-06-25T12:25:49.101Z,35.30
2023-06-25T12:28:19.007Z,34.78
2023-06-25T12:30:46.463Z,34.86
2023-06-25T12:33:14.022Z,34.49
2023-06-25T12:35:41.547Z,34.28
2023-06-25T12:38:09.078Z,34.31
2023-06-25T12:40:36.363Z,34.44
2023-06-25T12:43:03.961Z,33.92
2023-06-25T12:45:31.296Z,34.04
2023-06-25T12:47:58.673Z,34.92
2023-06-25T12:50:26.254Z,35.10
2023-06-25T12:52:53.548Z,34.33
2023-06-25T12:55:21.144Z,34.77
2023-06-25T12:57:48.443Z,34.73
2023-06-25T13:00:24.467Z,34.88
2023-06-25T13:03:01.238Z,33.87
2023-06-25T13:05:28.688Z,34.03
2023-06-25T13:07:56.348Z,34.41
2023-06-25T13:10:24.736Z,34.37
2023-06-25T13:12:52.032Z,33.87
2023-06-25T13:15:19.861Z,34.02
2023-06-25T13:17:47.128Z,33.29
2023-06-25T13:20:14.669Z,33.95
2023-06-25T13:22:43.760Z,34.26
2023-06-25T13:25:11.422Z,33.96
2023-06-25T13:27:38.885Z,35.21
2023-06-25T13:30:07.290Z,34.43
2023-06-25T13:32:34.767Z,34.74
2023-06-25T13:35:02.619Z,34.97
2023-06-25T13:37:30.630Z,34.54
2023-06-25T13:39:58.004Z,35.37
2023-06-25T13:42:25.892Z,34.20
2023-06-25T13:44:53.167Z,33.99
2023-06-25T13:47:20.587Z,33.91
2023-06-25T13:49:47.875Z,34.65
2023-06-25T13:52:15.356Z,35.47
2023-06-25T13:54:42.985Z,34.77
2023-06-25T13:57:10.397Z,35.40
2023-06-25T13:59:37.699Z,34.95
2023-06-25T14:02:05.463Z,34.45
2023-06-25T14:04:32.792Z,35.12
2023-06-25T14:07:00.239Z,34.00
2023-06-25T14:09:27.733Z,33.56
2023-06-25T14:11:55.167Z,35.01
2023-06-25T14:14:22.706Z,34.80
2023-06-25T14:16:50.105Z,33.45
2023-06-25T14:19:18.201Z,33.46
2023-06-25T14:21:48.409Z,33.77
2023-06-25T14:24:15.968Z,33.67
2023-06-25T14:26:43.460Z,33.53
2023-06-25T14:29:12.233Z,33.02
2023-06-25T14:31:40.043Z,33.51
2023-06-25T14:34:07.509Z,34.12
2023-06-25T14:36:34.979Z,34.32
2023-06-25T14:39:22.650Z,34.38
2023-06-25T14:41:49.937Z,34.41
2023-06-25T14:44:19.166Z,34.62
2023-06-25T14:46:46.655Z,34.06
2023-06-25T14:49:13.931Z,33.51
2023-06-25T14:51:44.046Z,33.82
2023-06-25T14:54:11.404Z,33.21
2023-06-25T14:56:38.673Z,32.43
2023-06-25T14:59:05.984Z,32.96
2023-06-25T15:01:33.359Z,31.49
2023-06-25T15:04:01.006Z,33.46
2023-06-25T15:06:35.536Z,33.16
2023-06-25T15:09:04.363Z,34.45
2023-06-25T15:11:31.762Z,34.62
2023-06-25T15:14:00.788Z,33.90
2023-06-25T15:16:28.637Z,34.54
2023-06-25T15:18:56.005Z,33.94
2023-06-25T15:21:23.515Z,35.55
2023-06-25T15:23:50.876Z,36.39
2023-06-25T15:26:18.448Z,36.23
2023-06-25T15:28:47.190Z,37.18
2023-06-25T15:31:14.677Z,35.29
2023-06-25T15:33:42.416Z,36.08
2023-06-25T15:36:09.893Z,35.67
2023-06-25T15:39:11.262Z,35.75
2023-06-25T15:41:39.525Z,35.53
2023-06-25T15:44:07.387Z,35.55
2023-06-25T15:46:34.810Z,35.80
2023-06-25T15:49:02.179Z,35.35
2023-06-25T15:51:30.272Z,34.69
2023-06-25T15:53:57.588Z,35.30
2023-06-25T15:56:25.009Z,35.67
2023-06-25T15:58:52.607Z,35.21
2023-06-25T16:02:03.981Z,35.35
2023-06-25T16:04:31.453Z,36.11
2023-06-25T16:06:59.043Z,35.52
2023-06-25T16:09:30.359Z,35.56
2023-06-25T16:11:57.810Z,35.63
2023-06-25T16:14:26.064Z,35.63
2023-06-25T16:16:54.574Z,35.33
2023-06-25T16:19:48.512Z,35.17
2023-06-25T16:22:10.576Z,34.94
2023-06-25T16:24:37.871Z,34.35
2023-06-25T16:27:05.597Z,34.25
2023-06-25T16:29:33.277Z,35.06
2023-06-25T16:32:01.160Z,34.38
2023-06-25T16:34:28.741Z,34.80
2023-06-25T16:36:56.270Z,34.54
2023-06-25T16:39:23.659Z,35.14
2023-06-25T16:41:51.077Z,35.25
2023-06-25T16:44:18.428Z,34.77
2023-06-25T16:46:45.813Z,34.69
2023-06-25T16:49:13.294Z,34.81
2023-06-25T16:51:40.825Z,35.04
2023-06-25T16:54:08.268Z,34.56
2023-06-25T16:56:35.621Z,33.79
2023-06-25T16:59:03.591Z,35.16
2023-06-25T17:01:31.076Z,35.62
2023-06-25T17:03:58.602Z,35.78
2023-06-25T17:06:26.100Z,35.76
2023-06-25T17:08:53.543Z,36.10
2023-06-25T17:11:20.902Z,35.62
2023-06-25T17:13:48.505Z,35.31
2023-06-25T17:16:15.858Z,35.90
2023-06-25T17:18:43.181Z,36.08
2023-06-25T17:21:10.576Z,35.55
2023-06-25T17:23:37.924Z,36.38
2023-06-25T17:26:05.297Z,35.95
2023-06-25T17:28:32.835Z,36.08
2023-06-25T17:31:00.117Z,36.59
2023-06-25T17:33:27.539Z,36.71
2023-06-25T17:35:55.003Z,36.51
2023-06-25T17:38:22.493Z,35.61
2023-06-25T17:40:50.014Z,36.27
2023-06-25T17:43:21.136Z,36.63
2023-06-25T17:45:48.806Z,37.52
2023-06-25T17:48:16.489Z,37.71
2023-06-25T17:50:47.339Z,37.47
2023-06-25T17:53:14.909Z,36.72
2023-06-25T17:55:42.262Z,36.73
2023-06-25T17:58:09.973Z,37.48
2023-06-25T18:00:37.266Z,38.06
2023-06-25T18:03:05.096Z,38.13
2023-06-25T18:05:32.561Z,38.23
2023-06-25T18:08:00.091Z,37.96
2023-06-25T18:10:27.650Z,39.30
2023-06-25T18:12:56.366Z,38.54
2023-06-25T18:15:23.989Z,38.86
2023-06-25T18:17:51.452Z,38.86
2023-06-25T18:20:19.006Z,38.80
2023-06-25T18:22:50.767Z,39.46
2023-06-25T18:25:19.864Z,39.58
2023-06-25T18:27:47.272Z,40.38
2023-06-25T18:30:14.983Z,40.13
2023-06-25T18:32:42.375Z,38.98
2023-06-25T18:35:09.954Z,39.69
2023-06-25T18:37:37.433Z,40.09
2023-06-25T18:40:05.923Z,40.58
2023-06-25T18:42:33.458Z,41.47
2023-06-25T18:45:00.972Z,41.20
2023-06-25T18:47:30.833Z,40.61
2023-06-25T18:49:58.360Z,41.64
2023-06-25T18:52:25.871Z,40.82
2023-06-25T18:54:53.408Z,41.17
2023-06-25T18:57:20.715Z,42.17
2023-06-25T18:59:48.183Z,43.21
2023-06-25T19:02:15.843Z,42.91
2023-06-25T19:04:43.397Z,44.47
2023-06-25T19:07:10.878Z,45.06
2023-06-25T19:09:38.425Z,44.96
2023-06-25T19:12:06.046Z,44.19
2023-06-25T19:14:33.582Z,44.65
2023-06-25T19:17:01.012Z,46.58
2023-06-25T19:19:28.833Z,46.65
2023-06-25T19:21:56.393Z,47.44
2023-06-25T19:24:23.967Z,48.39
2023-06-25T19:26:51.559Z,47.84
2023-06-25T19:29:20.427Z,49.41
2023-06-25T19:31:49.443Z,49.04
2023-06-25T19:34:16.861Z,49.64
2023-06-25T19:36:44.363Z,49.24
2023-06-25T19:39:11.873Z,49.83
2023-06-25T19:41:39.431Z,49.68
2023-06-25T19:44:07.114Z,50.46
2023-06-25T19:46:34.653Z,50.58
2023-06-25T19:49:03.177Z,50.98
2023-06-25T19:51:30.701Z,51.61
2023-06-25T19:53:58.165Z,51.91
2023-06-25T19:56:25.673Z,52.21
2023-06-25T19:58:53.284Z,52.64
2023-06-25T20:01:20.776Z,50.95
2023-06-25T20:03:48.362Z,51.78
2023-06-25T20:06:15.761Z,53.35
2023-06-25T20:08:43.414Z,52.31
2023-06-25T20:11:10.986Z,53.50
2023-06-25T20:13:38.981Z,54.07
2023-06-25T20:16:06.472Z,53.73
2023-06-25T20:18:34.503Z,52.74
2023-06-25T20:21:02.052Z,52.82
2023-06-25T20:23:29.955Z,53.05
2023-06-25T20:25:57.550Z,52.49
2023-06-25T20:28:24.997Z,52.43
2023-06-25T20:30:52.352Z,52.32
2023-06-25T20:33:19.966Z,52.88
2023-06-25T20:35:47.423Z,52.89
2023-06-25T20:38:14.889Z,52.77
2023-06-25T20:40:42.288Z,52.88
2023-06-25T20:43:10.414Z,52.76
2023-06-25T20:45:39.137Z,53.18
2023-06-25T20:48:07.095Z,53.44
2023-06-25T20:50:34.533Z,53.73
2023-06-25T20:53:02.199Z,53.66
2023-06-25T20:55:29.747Z,54.30
2023-06-25T20:57:57.012Z,54.08
2023-06-25T21:00:24.422Z,54.19
2023-06-25T21:02:56.415Z,54.18
2023-06-25T21:05:24.399Z,54.30
2023-06-25T21:07:51.917Z,54.13
2023-06-25T21:10:19.408Z,54.15
2023-06-25T21:12:46.989Z,54.29
2023-06-25T21:15:14.448Z,54.15
2023-06-25T21:17:41.749Z,54.46
2023-06-25T21:20:09.366Z,54.41
2023-06-25T21:22:37.082Z,54.90
2023-06-25T21:25:04.977Z,54.10
2023-06-25T21:27:32.616Z,54.33
2023-06-25T21:30:00.100Z,54.46
2023-06-25T21:32:27.612Z,54.72
2023-06-25T21:34:55.098Z,54.98
2023-06-25T21:37:22.664Z,54.85
2023-06-25T21:39:49.981Z,55.18
2023-06-25T21:42:17.428Z,54.86
2023-06-25T21:44:44.888Z,54.80
2023-06-25T21:47:12.598Z,54.66
2023-06-25T21:49:39.964Z,55.60
2023-06-25T21:52:11.019Z,54.79
2023-06-25T21:54:38.726Z,55.05
2023-06-25T21:57:06.129Z,55.77
2023-06-25T21:59:33.736Z,55.83
2023-06-25T22:02:04.860Z,55.81
2023-06-25T22:04:32.451Z,56.12
2023-06-25T22:07:00.072Z,56.75
2023-06-25T22:09:27.565Z,58.25
2023-06-25T22:11:57.841Z,57.24
2023-06-25T22:14:25.455Z,57.96
2023-06-25T22:16:54.311Z,58.69
2023-06-25T22:19:21.854Z,58.20
2023-06-25T22:21:49.326Z,57.75
2023-06-25T22:24:16.936Z,57.35
2023-06-25T22:26:44.234Z,57.53
2023-06-25T22:29:11.802Z,57.69
2023-06-25T22:31:40.850Z,58.29
2023-06-25T22:34:08.315Z,58.58
2023-06-25T22:36:36.021Z,58.46
2023-06-25T22:39:03.693Z,59.34
2023-06-25T22:41:32.170Z,58.51
2023-06-25T22:43:59.722Z,58.16
2023-06-25T22:46:27.076Z,57.17
2023-06-25T22:48:54.638Z,57.27
2023-06-25T22:51:21.998Z,57.99
2023-06-25T22:53:49.510Z,57.94
2023-06-25T22:56:16.918Z,57.12
2023-06-25T22:58:44.382Z,57.70
2023-06-25T23:01:14.661Z,59.17
2023-06-25T23:03:45.486Z,58.44
2023-06-25T23:06:13.929Z,59.16
2023-06-25T23:08:41.226Z,60.01
2023-06-25T23:11:08.791Z,60.87
2023-06-25T23:13:36.245Z,60.74
2023-06-25T23:16:03.758Z,61.56
2023-06-25T23:18:31.369Z,60.06
2023-06-25T23:21:05.173Z,60.54
2023-06-25T23:23:35.506Z,60.33
2023-06-25T23:26:09.275Z,59.68
2023-06-25T23:28:36.977Z,59.34
2023-06-25T23:31:07.105Z,58.90
2023-06-25T23:33:34.663Z,59.23
2023-06-25T23:36:02.576Z,58.70
2023-06-25T23:38:30.201Z,58.58
2023-06-25T23:40:57.643Z,59.86
2023-06-25T23:43:25.578Z,59.67
2023-06-25T23:45:53.157Z,60.38
2023-06-25T23:48:20.588Z,60.90
2023-06-25T23:50:47.980Z,62.13
2023-06-25T23:53:15.540Z,61.65
2023-06-25T23:55:42.957Z,61.05
2023-06-25T23:58:10.487Z,62.75
